Time;durP1;ratioP1;P1;durP2;ratioP2;P2;SDS_P1;SDS_P2;PMS_P1;PMS_P2;Temp;Humidity;BMP_temperature;BMP_pressure;BME280_temperature;BME280_humidity;BME280_pressure;Samples;Min_cycle;Max_cycle;Signal;HPM_P1;HPM_P2
2021/02/08 00:09:31;;;;;;;21.7;10.7;;;;;;;-8.28;90.51074;97298.84;;;;
2021/02/08 00:19:27;;;;;;;17.8;9.2;;;;;;;-8.15;91.10742;97303.09;;;;
2021/02/08 00:29:24;;;;;;;16;8.7;;;;;;;-8.15;91.73242;97296.05;;;;
2021/02/08 00:39:21;;;;;;;21;10.3;;;;;;;-8.1;90.61426;97266.66;;;;
2021/02/08 00:49:18;;;;;;;19.2;11.4;;;;;;;-8.07;90.37012;97262.8;;;;
2021/02/08 00:59:15;;;;;;;19.6;9.8;;;;;;;-8.09;90.21582;97228.25;;;;
2021/02/08 01:09:12;;;;;;;20.2;11.2;;;;;;;-8.05;90.14844;97211.11;;;;
2021/02/08 01:19:09;;;;;;;21.8;10.7;;;;;;;-8.1;90.32324;97183.02;;;;
2021/02/08 01:29:06;;;;;;;15.1;9.1;;;;;;;-8.03;90.90723;97164.63;;;;
2021/02/08 01:39:03;;;;;;;20.2;10.9;;;;;;;-8;90.71973;97135.42;;;;
2021/02/08 01:49:00;;;;;;;15.2;8.8;;;;;;;-8.11;90.41602;97117.91;;;;
2021/02/08 01:58:56;;;;;;;16;9;;;;;;;-8.08;90.44336;97101.77;;;;
2021/02/08 02:08:53;;;;;;;27.5;11.9;;;;;;;-8.09;92.88184;97094.97;;;;
2021/02/08 02:18:50;;;;;;;20.7;12.1;;;;;;;-8.13;92.88477;97084.17;;;;
2021/02/08 02:28:47;;;;;;;17.6;9.9;;;;;;;-8.06;90.33105;97043.05;;;;
2021/02/08 02:38:44;;;;;;;20;9.6;;;;;;;-8.15;90.30176;97015.64;;;;
2021/02/08 02:48:41;;;;;;;16.6;10.5;;;;;;;-8.09;89.89355;97029.64;;;;
2021/02/08 02:58:39;;;;;;;18.9;10.6;;;;;;;-8.07;89.6709;97014.52;;;;
2021/02/08 03:08:34;;;;;;;13.2;7.9;;;;;;;-7.93;89.74512;97000.98;;;;
2021/02/08 03:18:31;;;;;;;19.3;9.6;;;;;;;-7.97;89.88574;96985.98;;;;
2021/02/08 03:28:28;;;;;;;17.1;9.9;;;;;;;-7.89;89.72266;96988.25;;;;
2021/02/08 03:38:25;;;;;;;15.1;9.8;;;;;;;-7.81;89.65332;96972.22;;;;
2021/02/08 03:48:22;;;;;;;19.6;11.9;;;;;;;-7.81;89.99805;96946.08;;;;
2021/02/08 03:58:19;;;;;;;16.8;10.1;;;;;;;-7.81;89.97656;96928.54;;;;
2021/02/08 04:08:16;;;;;;;16;9;;;;;;;-7.78;89.72363;96903.77;;;;
2021/02/08 04:18:12;;;;;;;13.2;9.4;;;;;;;-7.75;90.01172;96877.95;;;;
2021/02/08 04:28:09;;;;;;;16.5;7.6;;;;;;;-7.82;90.18945;96892.98;;;;
2021/02/08 04:38:06;;;;;;;17.8;7.9;;;;;;;-7.7;89.84863;96856.31;;;;
2021/02/08 04:48:03;;;;;;;14.1;11.1;;;;;;;-7.72;89.65137;96856.56;;;;
2021/02/08 04:58:00;;;;;;;17.4;9.2;;;;;;;-7.63;89.53906;96866.66;;;;
2021/02/08 05:07:57;;;;;;;14.7;8.5;;;;;;;-7.57;89.56445;96842.98;;;;
2021/02/08 05:17:54;;;;;;;16.5;10.1;;;;;;;-7.57;89.60645;96826.48;;;;
2021/02/08 05:27:51;;;;;;;20.6;13.9;;;;;;;-7.62;89.8457;96824.56;;;;
2021/02/08 05:37:49;;;;;;;17.9;11.9;;;;;;;-7.55;90.02051;96817.37;;;;
2021/02/08 05:47:49;;;;;;;13;8.2;;;;;;;-7.52;89.79199;96824.73;;;;
2021/02/08 05:57:43;;;;;;;21.1;11.4;;;;;;;-7.48;89.89453;96796.28;;;;
2021/02/08 06:07:38;;;;;;;11.8;9.2;;;;;;;-7.39;89.86133;96785.19;;;;
2021/02/08 06:17:35;;;;;;;12.3;9.1;;;;;;;-7.42;89.64063;96822.29;;;;
2021/02/08 06:27:32;;;;;;;16.7;10.2;;;;;;;-7.34;90.03516;96814.05;;;;
2021/02/08 06:37:29;;;;;;;14.2;10.6;;;;;;;-7.23;89.6377;96812.39;;;;
2021/02/08 06:47:26;;;;;;;14.9;9.7;;;;;;;-7.16;90.22168;96833.97;;;;
2021/02/08 06:57:23;;;;;;;11.8;8.4;;;;;;;-7.13;90.35938;96794.23;;;;
2021/02/08 07:07:20;;;;;;;16;9.2;;;;;;;-7;89.24512;96812.22;;;;
2021/02/08 07:17:17;;;;;;;16.2;10;;;;;;;-6.9;89.34082;96794.03;;;;
2021/02/08 07:27:14;;;;;;;12.1;7.8;;;;;;;-6.9;89.17773;96803.71;;;;
2021/02/08 07:37:11;;;;;;;16.2;10.5;;;;;;;-6.73;88.62207;96797.41;;;;
2021/02/08 07:47:08;;;;;;;19.5;10.9;;;;;;;-6.81;88.07617;96797.84;;;;
2021/02/08 07:57:05;;;;;;;16.5;12.9;;;;;;;-6.56;89.01172;96817.56;;;;
2021/02/08 08:07:02;;;;;;;19.9;11.5;;;;;;;-6.51;93.7168;96800.06;;;;
2021/02/08 08:16:59;;;;;;;16.1;12.3;;;;;;;-6.46;88.13867;96821.11;;;;
2021/02/08 08:26:56;;;;;;;18.1;11.1;;;;;;;-6.45;86.85254;96814.02;;;;
2021/02/08 08:36:53;;;;;;;17.1;9.1;;;;;;;-6.16;85.47461;96820.67;;;;
2021/02/08 08:46:50;;;;;;;18.5;12.1;;;;;;;-5.98;85.10156;96817.75;;;;
2021/02/08 08:56:48;;;;;;;13.9;9.9;;;;;;;-5.77;84.75293;96829.22;;;;
2021/02/08 09:06:45;;;;;;;19.3;11.7;;;;;;;-5.9;84.83496;96840.13;;;;
2021/02/08 09:16:44;;;;;;;15.5;11.6;;;;;;;-5.76;84.23535;96825.56;;;;
2021/02/08 09:26:43;;;;;;;16.5;12;;;;;;;-5.97;84.80078;96840.28;;;;
2021/02/08 09:36:36;;;;;;;20.5;12.4;;;;;;;-5.83;85.96387;96833.59;;;;
2021/02/08 09:46:33;;;;;;;28.4;14.3;;;;;;;-5.32;84.45508;96832.28;;;;
2021/02/08 09:56:31;;;;;;;16.9;10.7;;;;;;;-5.37;83.99902;96855.84;;;;
2021/02/08 10:06:28;;;;;;;15.7;11.7;;;;;;;-4.84;81.80176;96859.45;;;;
2021/02/08 10:16:25;;;;;;;15;9.8;;;;;;;-4.3;80.96094;96847.69;;;;
2021/02/08 10:26:22;;;;;;;20;12.3;;;;;;;-4.63;80.27734;96853.29;;;;
2021/02/08 10:36:20;;;;;;;18;11.5;;;;;;;-4.67;79.37793;96867.97;;;;
2021/02/08 10:46:17;;;;;;;25;14.5;;;;;;;-4.64;80.4375;96864.84;;;;
2021/02/08 10:56:14;;;;;;;17.2;11.4;;;;;;;-4.55;79.91211;96837.05;;;;
2021/02/08 11:06:12;;;;;;;13.2;11.1;;;;;;;-4.67;79.94434;96834.61;;;;
2021/02/08 11:16:09;;;;;;;16.5;11.5;;;;;;;-4.17;78.99414;96844.63;;;;
2021/02/08 11:26:06;;;;;;;24.6;15.9;;;;;;;-4.36;78.34766;96826.89;;;;
2021/02/08 11:36:03;;;;;;;13;10.5;;;;;;;-4.34;78.87402;96832.7;;;;
2021/02/08 11:46:01;;;;;;;18.5;13.4;;;;;;;-4.24;78.14063;96827.48;;;;
2021/02/08 11:55:58;;;;;;;32.9;22.3;;;;;;;-3.78;78.17188;96846.85;;;;
2021/02/08 12:05:58;;;;;;;28.7;14.8;;;;;;;-3.71;77.06152;96844.77;;;;
2021/02/08 12:15:53;;;;;;;25.1;15;;;;;;;-3.83;77.20215;96829.22;;;;
2021/02/08 12:25:50;;;;;;;34.5;19.2;;;;;;;-3.85;78.32227;96804.99;;;;
2021/02/08 12:35:47;;;;;;;20.5;15.5;;;;;;;-3.54;76.09863;96808.51;;;;
2021/02/08 12:45:45;;;;;;;26.5;16.5;;;;;;;-3.68;76.32422;96831.11;;;;
2021/02/08 12:55:43;;;;;;;24.5;16.6;;;;;;;-3.75;76.22461;96843.73;;;;
2021/02/08 13:05:43;;;;;;;28.6;16.9;;;;;;;-3.87;76.14844;96836.05;;;;
2021/02/08 13:15:37;;;;;;;26.3;15.5;;;;;;;-3.79;76.26172;96829.5;;;;
2021/02/08 13:25:34;;;;;;;19.1;15.3;;;;;;;-3.79;76.90527;96838.19;;;;
2021/02/08 13:35:31;;;;;;;25.2;16.9;;;;;;;-4.15;77.23047;96831.2;;;;
2021/02/08 13:45:29;;;;;;;27.3;16.2;;;;;;;-3.9;77.07129;96836.57;;;;
2021/02/08 13:55:26;;;;;;;26.7;17;;;;;;;-4.08;77.60352;96826.49;;;;
2021/02/08 14:05:23;;;;;;;33.1;20.5;;;;;;;-3.97;78.80176;96838.64;;;;
2021/02/08 14:15:23;;;;;;;27.4;17.3;;;;;;;-4.09;78.99609;96832.8;;;;
2021/02/08 14:25:18;;;;;;;33.6;19.7;;;;;;;-4.36;79.26172;96837.41;;;;
2021/02/08 14:35:15;;;;;;;32.8;23.9;;;;;;;-4.35;79.90625;96834.53;;;;
2021/02/08 14:45:13;;;;;;;22.3;13.8;;;;;;;-4.43;80.04102;96828.95;;;;
2021/02/08 14:55:10;;;;;;;22;13.9;;;;;;;-4.42;80.55762;96855;;;;
2021/02/08 15:05:07;;;;;;;26.6;14;;;;;;;-4.52;80.75488;96851.52;;;;
2021/02/08 15:15:04;;;;;;;24.4;17.7;;;;;;;-4.66;81.78223;96856.42;;;;
2021/02/08 15:25:01;;;;;;;18.7;11.8;;;;;;;-4.78;81.8252;96866.31;;;;
2021/02/08 15:34:59;;;;;;;31.2;13.4;;;;;;;-4.91;82.55957;96883.3;;;;
2021/02/08 15:44:56;;;;;;;24.4;18.9;;;;;;;-4.97;83.21973;96894.02;;;;
2021/02/08 15:54:53;;;;;;;24.1;14.8;;;;;;;-5.15;83.77246;96911.73;;;;
2021/02/08 16:04:50;;;;;;;29.8;14.9;;;;;;;-5.18;83.88672;96933.23;;;;
2021/02/08 16:14:47;;;;;;;23.8;17.2;;;;;;;-5.14;83.92676;96936.92;;;;
2021/02/08 16:24:44;;;;;;;31.7;17.6;;;;;;;-5.25;85.2041;96940.52;;;;
2021/02/08 16:34:43;;;;;;;23.2;15.6;;;;;;;-5.27;85.99219;96954.91;;;;
2021/02/08 16:44:39;;;;;;;33;22.4;;;;;;;-5.2;86.44043;96945;;;;
2021/02/08 16:54:36;;;;;;;41.1;22.8;;;;;;;-5.05;86.64551;96955.67;;;;
2021/02/08 17:04:33;;;;;;;32.2;19.7;;;;;;;-5.09;86.76758;96955.38;;;;
2021/02/08 17:14:30;;;;;;;33.3;24.8;;;;;;;-4.98;86.39746;96955.47;;;;
2021/02/08 17:24:27;;;;;;;31.7;20.1;;;;;;;-4.83;85.9082;96959.05;;;;
2021/02/08 17:34:25;;;;;;;34.1;20.9;;;;;;;-5.14;88.1748;96959.8;;;;
2021/02/08 17:44:22;;;;;;;48.6;31.7;;;;;;;-5;88.15234;96955.73;;;;
2021/02/08 17:54:20;;;;;;;42.7;27.7;;;;;;;-4.92;88.07031;96954.47;;;;
2021/02/08 18:04:16;;;;;;;41.6;27.7;;;;;;;-4.84;87.65332;96959.28;;;;
2021/02/08 18:14:13;;;;;;;49.7;28.2;;;;;;;-4.86;88.2998;96959.52;;;;
2021/02/08 18:24:11;;;;;;;44.6;33.7;;;;;;;-4.84;87.92383;96982.92;;;;
2021/02/08 18:34:08;;;;;;;78.3;50.7;;;;;;;-5;89.14746;96999.59;;;;
2021/02/08 18:44:05;;;;;;;89.4;57.2;;;;;;;-4.85;88.89746;97002.34;;;;
2021/02/08 18:54:02;;;;;;;81.8;50.7;;;;;;;-4.87;88.87207;97004.44;;;;
2021/02/08 19:04:00;;;;;;;106.3;60.9;;;;;;;-4.93;88.15234;97023.83;;;;
2021/02/08 19:13:57;;;;;;;108.1;63.5;;;;;;;-4.97;88.13477;97027.98;;;;
2021/02/08 19:23:54;;;;;;;90.6;60.3;;;;;;;-5.04;87.05762;97022.13;;;;
2021/02/08 19:33:51;;;;;;;89.9;53.6;;;;;;;-5.11;87.23047;97033.63;;;;
2021/02/08 19:43:48;;;;;;;88.9;55.4;;;;;;;-5.07;86.80371;97031.3;;;;
2021/02/08 19:53:46;;;;;;;90;60;;;;;;;-5.13;86.76953;97061.14;;;;
2021/02/08 20:03:43;;;;;;;85.3;57.3;;;;;;;-5.1;86.28906;97074.58;;;;
2021/02/08 20:13:40;;;;;;;95.3;57.4;;;;;;;-5.21;86.29785;97082.6;;;;
2021/02/08 20:23:37;;;;;;;83.5;52.3;;;;;;;-5.26;85.77734;97087.77;;;;
2021/02/08 20:33:34;;;;;;;88.9;55.3;;;;;;;-5.35;85.62891;97084.79;;;;
2021/02/08 20:43:31;;;;;;;65.3;43.6;;;;;;;-5.31;85.18262;97072.73;;;;
2021/02/08 20:53:29;;;;;;;59.6;39.5;;;;;;;-5.38;84.50684;97074.75;;;;
2021/02/08 21:03:26;;;;;;;67.1;38.7;;;;;;;-5.27;84.41992;97100.1;;;;
2021/02/08 21:13:23;;;;;;;82.1;44;;;;;;;-5.39;85.06934;97099.44;;;;
2021/02/08 21:23:20;;;;;;;62.9;40.7;;;;;;;-5.27;85.61328;97092.22;;;;
2021/02/08 21:33:17;;;;;;;69;41.5;;;;;;;-5.44;86.22852;97096.72;;;;
2021/02/08 21:43:15;;;;;;;98;63.6;;;;;;;-5.56;88.4248;97090.8;;;;
2021/02/08 21:53:12;;;;;;;85;56;;;;;;;-5.43;88.18945;97113.27;;;;
2021/02/08 22:03:09;;;;;;;93.7;53.9;;;;;;;-5.38;88.1377;97127.25;;;;
2021/02/08 22:13:06;;;;;;;78.1;54.3;;;;;;;-5.41;86.85156;97125.11;;;;
2021/02/08 22:23:03;;;;;;;89.9;48.4;;;;;;;-5.64;87.01172;97133.98;;;;
2021/02/08 22:33:00;;;;;;;76.1;52.1;;;;;;;-5.7;86.70605;97142.02;;;;
2021/02/08 22:42:57;;;;;;;97.6;49.2;;;;;;;-5.79;86.7959;97146.06;;;;
2021/02/08 22:52:54;;;;;;;75;46.2;;;;;;;-5.73;86.77637;97163.49;;;;
2021/02/08 23:02:52;;;;;;;84.5;57;;;;;;;-5.73;86.04004;97168.73;;;;
2021/02/08 23:12:49;;;;;;;78.9;47.8;;;;;;;-5.81;85.58008;97158.63;;;;
2021/02/08 23:22:46;;;;;;;101.7;57.7;;;;;;;-5.75;85.38477;97179.45;;;;
2021/02/08 23:32:44;;;;;;;66.2;46.7;;;;;;;-5.86;85.3418;97169.86;;;;
2021/02/08 23:42:40;;;;;;;83.4;54.7;;;;;;;-6.01;85.44043;97172.25;;;;
2021/02/08 23:52:37;;;;;;;84.9;48.9;;;;;;;-5.95;85.35645;97192.27;;;;
